TimeSAST,TemperatureF,Dew PointF,Humidity,Sea Level PressureIn,VisibilityMPH,Wind Direction,Wind SpeedMPH,Gust SpeedMPH,PrecipitationIn,Events,Conditions,WindDirDegrees,DateUTC
12:00 AM,82.4,48.2,30,29.92,-9999.0,NW,8.1,-,N/A,,Unknown,320,2012-12-18 22:00:00
1:00 AM,82.4,50.0,32,29.95,6.2,North,11.5,-,N/A,,Mostly Cloudy,350,2012-12-18 23:00:00
2:00 AM,82,51,23,,25,West,6.9,,,,Scattered Clouds,260,2012-12-19 00:00:00
2:00 AM,80.6,50.0,34,29.95,6.2,West,5.8,-,N/A,,Mostly Cloudy,260,2012-12-19 00:00:00
3:00 AM,78.8,51.8,39,29.92,6.2,NNW,5.8,-,N/A,,Mostly Cloudy,330,2012-12-19 01:00:00
4:00 AM,78.8,51.8,39,29.89,6.2,South,3.5,-,N/A,,Mostly Cloudy,180,2012-12-19 02:00:00
5:00 AM,79,52,29,,25,North,3.5,,,,Scattered Clouds,10,2012-12-19 03:00:00
5:00 AM,78.8,51.8,39,29.92,6.2,North,3.5,-,N/A,,Mostly Cloudy,10,2012-12-19 03:00:00
6:00 AM,75.2,53.6,47,29.95,-9999.0,NE,4.6,-,N/A,,Clear,40,2012-12-19 04:00:00
6:43 AM,78.8,51.8,39,29.95,-9999.0,NNE,6.9,-,N/A,,Clear,30,2012-12-19 04:43:00
7:00 AM,78.8,51.8,39,29.95,-9999.0,NNE,8.1,-,N/A,,Clear,20,2012-12-19 05:00:00
8:00 AM,83,54,27,,25,NNE,13.8,,,,Scattered Clouds,20,2012-12-19 06:00:00
8:00 AM,82.4,53.6,37,29.98,-9999.0,NNE,12.7,-,N/A,,Clear,20,2012-12-19 06:00:00
9:00 AM,87.8,51.8,29,29.98,-9999.0,North,13.8,-,N/A,,Clear,360,2012-12-19 07:00:00
10:00 AM,87.8,50.0,27,29.95,-9999.0,NNW,13.8,-,N/A,,Clear,340,2012-12-19 08:00:00
10:40 AM,93.2,50.0,23,29.98,-9999.0,NNW,13.8,-,N/A,,Clear,330,2012-12-19 08:40:00
11:00 AM,94,51,14,,25,NNW,15.0,,,,Scattered Clouds,340,2012-12-19 09:00:00
11:00 AM,93.2,50.0,23,29.95,6.2,NNW,13.8,-,N/A,,Partly Cloudy,340,2012-12-19 09:00:00
12:00 PM,96.8,50.0,20,29.92,6.2,NNW,13.8,-,N/A,,Partly Cloudy,330,2012-12-19 10:00:00
1:00 PM,95.0,50.0,22,29.92,6.2,NNW,13.8,33.4,N/A,,Partly Cloudy,330,2012-12-19 11:00:00
1:42 PM,98.6,51.8,21,29.89,6.2,WNW,10.4,23.0,N/A,,Partly Cloudy,300,2012-12-19 11:42:00
2:00 PM,97,51,13,,25,NNW,13.8,,,,Partly Cloudy,330,2012-12-19 12:00:00
2:00 PM,96.8,50.0,20,29.89,6.2,NNW,13.8,-,N/A,,Partly Cloudy,330,2012-12-19 12:00:00
3:00 PM,96.8,48.2,19,29.83,6.2,NNW,9.2,-,N/A,,Partly Cloudy,330,2012-12-19 13:00:00
4:00 PM,95.0,50.0,22,29.80,6.2,NW,11.5,-,N/A,,Mostly Cloudy,320,2012-12-19 14:00:00
4:18 PM,91.4,48.2,23,29.80,6.2,NNW,9.2,-,N/A,Thunderstorm,Thunderstorm,330,2012-12-19 14:18:00
4:31 PM,89.6,55.4,31,29.80,6.2,NW,13.8,-,N/A,Rain-Thunderstorm,Thunderstorms and Rain,310,2012-12-19 14:31:00
5:00 PM,83,61,37,,19,NW,11.5,,,Thunderstorm,Thunderstorm,320,2012-12-19 15:00:00
5:00 PM,82.4,60.8,48,29.80,6.2,NW,11.5,-,N/A,Thunderstorm,Thunderstorm,320,2012-12-19 15:00:00
5:40 PM,77.0,55.4,47,29.86,4.3,WNW,32.2,46.0,N/A,Rain-Thunderstorm,Thunderstorms and Rain,290,2012-12-19 15:40:00
6:00 PM,75.2,53.6,47,29.86,4.3,WNW,31.1,43.7,N/A,Rain-Thunderstorm,Thunderstorms and Rain,300,2012-12-19 16:00:00
7:00 PM,82.4,50.0,32,29.89,6.2,SSE,6.9,26.5,N/A,Thunderstorm,Thunderstorm,150,2012-12-19 17:00:00
8:00 PM,73,56,46,,19,SSE,19.6,,,,Scattered Clouds,150,2012-12-19 18:00:00
8:00 PM,73.4,55.4,53,29.92,6.2,SSE,18.4,-,N/A,,Mostly Cloudy,150,2012-12-19 18:00:00
9:00 PM,69.8,60.8,73,30.04,-9999.0,SW,13.8,-,N/A,,Unknown,220,2012-12-19 19:00:00
10:00 PM,68.0,60.8,78,29.95,-9999.0,NE,12.7,-,N/A,,Unknown,40,2012-12-19 20:00:00
11:00 PM,70,60,62,,,NNE,5.8,,,,,20,2012-12-19 21:00:00
11:00 PM,68.0,59.0,73,29.92,-9999.0,NNE,4.6,-,N/A,,Unknown,20,2012-12-19 21:00:00